createdAt,value
2022-08-19T00:00:51.234Z,22.83
2022-08-19T00:03:17.864Z,25.88
2022-08-19T00:05:44.484Z,23.08
2022-08-19T00:08:11.106Z,22.75
2022-08-19T00:10:37.700Z,23.52
2022-08-19T00:13:05.130Z,21.60
2022-08-19T00:15:31.926Z,24.63
2022-08-19T00:17:58.736Z,26.65
2022-08-19T00:20:25.468Z,22.70
2022-08-19T00:22:52.813Z,24.42
2022-08-19T00:25:30.322Z,22.90
2022-08-19T00:27:57.538Z,28.30
2022-08-19T00:30:24.734Z,25.88
2022-08-19T00:32:51.580Z,23.52
2022-08-19T00:35:18.337Z,25.35
2022-08-19T00:37:45.682Z,23.88
2022-08-19T00:40:13.322Z,23.55
2022-08-19T00:42:40.179Z,24.83
2022-08-19T00:45:15.112Z,26.10
2022-08-19T00:47:41.796Z,22.73
2022-08-19T00:50:09.291Z,26.05
2022-08-19T00:52:39.676Z,20.85
2022-08-19T00:55:08.945Z,23.08
2022-08-19T00:57:37.789Z,21.75
2022-08-19T01:00:07.673Z,22.15
2022-08-19T01:02:34.368Z,24.08
2022-08-19T01:05:02.525Z,21.63
2022-08-19T01:07:29.185Z,21.40
2022-08-19T01:10:02.708Z,24.33
2022-08-19T01:12:29.329Z,20.40
2022-08-19T01:14:56.016Z,20.02
2022-08-19T01:17:22.676Z,20.08
2022-08-19T01:19:49.294Z,24.02
2022-08-19T01:22:30.199Z,20.90
2022-08-19T01:24:59.621Z,19.42
2022-08-19T01:27:26.335Z,19.42
2022-08-19T01:29:53.012Z,20.83
2022-08-19T01:32:21.158Z,21.00
2022-08-19T01:35:03.267Z,20.48
2022-08-19T01:37:31.325Z,22.58
2022-08-19T01:39:58.321Z,19.35
2022-08-19T01:42:29.005Z,19.85
2022-08-19T01:44:57.422Z,19.30
2022-08-19T01:47:24.040Z,23.40
2022-08-19T01:49:50.677Z,17.17
2022-08-19T01:52:17.291Z,17.60
2022-08-19T01:54:43.913Z,20.42
2022-08-19T01:57:12.539Z,18.63
2022-08-19T01:59:39.167Z,17.35
2022-08-19T02:02:08.012Z,16.33
2022-08-19T02:04:35.116Z,15.85
2022-08-19T02:07:02.391Z,18.05
2022-08-19T02:09:29.021Z,18.20
2022-08-19T02:11:55.621Z,19.88
2022-08-19T02:14:22.242Z,16.38
2022-08-19T02:16:48.891Z,19.67
2022-08-19T02:19:15.500Z,18.80
2022-08-19T02:21:42.097Z,16.98
2022-08-19T02:24:08.721Z,17.15
2022-08-19T02:26:35.321Z,17.75
2022-08-19T02:29:02.017Z,18.40
2022-08-19T02:31:28.936Z,16.85
2022-08-19T02:33:56.922Z,19.27
2022-08-19T02:36:24.294Z,16.88
2022-08-19T02:38:54.912Z,16.40
2022-08-19T02:44:26.584Z,21.48
2022-08-19T02:46:41.197Z,18.17
2022-08-19T02:49:08.419Z,15.27
2022-08-19T02:51:40.230Z,17.98
2022-08-19T02:54:07.369Z,17.05
2022-08-19T02:56:35.954Z,18.08
2022-08-19T02:59:02.761Z,20.05
2022-08-19T03:01:31.833Z,20.60
2022-08-19T03:04:00.071Z,16.25
2022-08-19T03:06:26.782Z,18.45
2022-08-19T03:08:53.476Z,21.73
2022-08-19T03:11:22.119Z,17.63
2022-08-19T03:13:51.642Z,20.00
2022-08-19T03:16:19.161Z,16.38
2022-08-19T03:18:45.897Z,18.75
2022-08-19T03:21:20.205Z,18.77
2022-08-19T03:23:46.872Z,18.25
2022-08-19T03:26:16.717Z,17.02
2022-08-19T03:28:50.948Z,16.50
2022-08-19T03:31:41.687Z,17.23
2022-08-19T03:34:08.157Z,17.65
2022-08-19T03:36:34.866Z,16.55
2022-08-19T03:39:01.753Z,16.55
2022-08-19T03:41:44.238Z,20.27
2022-08-19T03:44:16.791Z,16.15
2022-08-19T03:46:45.275Z,15.45
2022-08-19T03:49:13.944Z,18.10
2022-08-19T03:51:41.936Z,15.27
2022-08-19T03:54:10.156Z,14.90
2022-08-19T03:56:37.733Z,15.15
2022-08-19T03:59:04.523Z,19.92
2022-08-19T04:01:35.371Z,18.77
2022-08-19T04:04:02.438Z,17.40
2022-08-19T04:06:33.004Z,17.42
2022-08-19T04:09:00.236Z,15.40
2022-08-19T04:11:42.898Z,17.00
2022-08-19T04:14:15.283Z,18.92
2022-08-19T04:16:42.084Z,18.88
2022-08-19T04:19:08.780Z,17.20
2022-08-19T04:21:35.559Z,17.38
2022-08-19T04:24:03.787Z,17.50
2022-08-19T04:26:33.277Z,18.23
2022-08-19T04:29:06.537Z,17.83
2022-08-19T04:31:37.555Z,17.73
2022-08-19T04:34:06.446Z,18.52
2022-08-19T04:36:35.680Z,17.05
2022-08-19T04:39:09.104Z,19.67
2022-08-19T04:41:54.620Z,17.42
2022-08-19T04:44:21.798Z,19.17
2022-08-19T04:46:51.177Z,18.45
2022-08-19T04:49:20.264Z,19.23
2022-08-19T04:51:48.623Z,21.90
2022-08-19T04:54:34.766Z,19.60
2022-08-19T04:57:02.695Z,17.58
2022-08-19T04:59:29.458Z,19.85
2022-08-19T05:01:56.101Z,20.27
2022-08-19T05:04:22.693Z,19.88
2022-08-19T05:06:49.591Z,20.25
2022-08-19T05:09:16.735Z,17.80
2022-08-19T05:11:43.498Z,22.38
2022-08-19T05:14:10.580Z,21.25
2022-08-19T05:16:37.206Z,18.65
2022-08-19T05:19:22.128Z,16.77
2022-08-19T05:22:07.032Z,21.52
2022-08-19T05:24:44.046Z,17.42
2022-08-19T05:27:18.075Z,20.52
2022-08-19T05:29:44.745Z,19.75
2022-08-19T05:32:11.454Z,20.42
2022-08-19T05:34:39.076Z,21.98
2022-08-19T05:37:06.114Z,18.67
2022-08-19T05:39:34.036Z,18.98
2022-08-19T05:42:07.604Z,24.67
2022-08-19T05:44:36.305Z,21.25
2022-08-19T05:47:03.845Z,17.83
2022-08-19T05:49:31.567Z,21.27
2022-08-19T05:51:58.212Z,17.52
2022-08-19T05:54:25.244Z,17.20
2022-08-19T05:56:52.705Z,20.48
2022-08-19T05:59:22.206Z,20.48
2022-08-19T06:01:55.180Z,16.23
2022-08-19T06:06:52.550Z,16.75
2022-08-19T06:09:19.576Z,17.67
2022-08-19T06:11:56.019Z,17.55
2022-08-19T06:14:27.892Z,15.52
2022-08-19T06:16:54.832Z,16.20
2022-08-19T06:19:23.084Z,20.25
2022-08-19T06:21:50.572Z,19.00
2022-08-19T06:24:19.613Z,17.95
2022-08-19T06:29:23.492Z,19.83
2022-08-19T06:31:52.251Z,20.45
2022-08-19T06:34:18.995Z,13.85
2022-08-19T06:36:47.845Z,14.73
2022-08-19T06:39:20.006Z,19.83
2022-08-19T06:41:52.451Z,15.35
2022-08-19T06:44:21.920Z,17.40
2022-08-19T06:46:53.569Z,14.02
2022-08-19T06:49:22.080Z,18.23
2022-08-19T06:51:49.302Z,15.13
2022-08-19T06:54:19.516Z,19.17
2022-08-19T06:56:46.771Z,13.32
2022-08-19T06:59:22.181Z,10.05
2022-08-19T07:01:51.585Z,8.40
2022-08-19T07:04:20.442Z,11.77
2022-08-19T07:06:55.000Z,8.23
2022-08-19T07:09:22.005Z,6.35
2022-08-19T07:11:50.128Z,11.77
2022-08-19T07:14:19.598Z,6.75
2022-08-19T07:16:47.823Z,5.68
2022-08-19T07:19:16.236Z,6.85
2022-08-19T07:21:46.688Z,5.50
2022-08-19T07:24:13.358Z,9.80
2022-08-19T07:26:42.188Z,7.75
2022-08-19T07:29:09.165Z,4.40
2022-08-19T07:31:38.718Z,5.55
2022-08-19T07:36:37.000Z,6.00
2022-08-19T07:39:06.687Z,6.00
2022-08-19T07:41:33.514Z,6.70
2022-08-19T07:44:04.370Z,4.10
2022-08-19T07:46:32.392Z,4.78
2022-08-19T07:48:59.136Z,4.32
2022-08-19T07:51:36.421Z,4.18
2022-08-19T07:54:03.837Z,4.40
2022-08-19T07:56:30.458Z,5.50
2022-08-19T08:01:28.974Z,4.30
2022-08-19T08:04:15.475Z,4.07
2022-08-19T08:07:00.465Z,4.95
2022-08-19T08:09:33.239Z,5.25
2022-08-19T08:19:28.509Z,4.88
2022-08-19T08:21:56.404Z,4.03
2022-08-19T08:24:23.049Z,4.85
2022-08-19T08:26:57.100Z,4.43
2022-08-19T08:29:24.628Z,4.05
2022-08-19T08:31:59.721Z,5.75
2022-08-19T08:34:26.844Z,4.50
2022-08-19T08:36:53.483Z,5.43
2022-08-19T08:39:20.857Z,5.25
2022-08-19T08:42:09.930Z,4.55
2022-08-19T08:45:04.220Z,4.55
2022-08-19T08:47:33.569Z,3.78
2022-08-19T08:50:01.316Z,5.40
2022-08-19T08:52:49.387Z,4.43
2022-08-19T08:55:17.711Z,3.33
2022-08-19T08:57:55.591Z,3.15
2022-08-19T09:00:30.551Z,3.30
2022-08-19T09:02:58.327Z,3.97
2022-08-19T09:05:39.493Z,3.25
2022-08-19T09:08:29.719Z,2.53
2022-08-19T09:10:58.352Z,1.88
2022-08-19T09:13:42.286Z,2.38
2022-08-19T09:16:21.861Z,3.53
2022-08-19T09:19:06.544Z,1.98
2022-08-19T09:21:34.255Z,4.32
2022-08-19T09:24:03.654Z,2.88
2022-08-19T09:26:47.594Z,3.95
2022-08-19T09:29:18.174Z,3.20
2022-08-19T09:31:45.218Z,2.67
2022-08-19T09:34:20.615Z,3.00
2022-08-19T09:36:50.375Z,3.65
2022-08-19T09:39:18.433Z,2.10
2022-08-19T09:41:47.576Z,2.33
2022-08-19T09:44:16.569Z,1.83
2022-08-19T09:46:47.793Z,2.40
2022-08-19T09:49:15.348Z,4.43
2022-08-19T09:51:42.424Z,5.30
2022-08-19T09:54:11.345Z,2.72
2022-08-19T09:56:38.565Z,3.42
2022-08-19T09:59:05.625Z,3.03
2022-08-19T10:01:33.075Z,4.20
2022-08-19T10:04:00.502Z,4.18
2022-08-19T10:06:39.939Z,3.90
2022-08-19T10:09:11.813Z,3.22
2022-08-19T10:11:46.870Z,2.65
2022-08-19T10:14:23.182Z,2.70
2022-08-19T10:16:50.316Z,3.08
2022-08-19T10:19:25.612Z,3.90
2022-08-19T10:21:53.200Z,2.00
2022-08-19T10:24:21.494Z,2.92
2022-08-19T10:26:49.446Z,2.87
2022-08-19T10:29:33.083Z,2.60
2022-08-19T10:32:04.299Z,3.40
2022-08-19T10:34:31.413Z,3.30
2022-08-19T10:37:01.061Z,4.07
2022-08-19T10:39:32.894Z,4.10
2022-08-19T10:42:11.545Z,3.17
2022-08-19T10:44:38.721Z,2.45
2022-08-19T10:47:24.329Z,3.20
2022-08-19T10:50:12.117Z,3.03
2022-08-19T10:52:39.911Z,6.03
2022-08-19T10:55:35.805Z,2.42
2022-08-19T10:58:03.144Z,2.58
2022-08-19T11:00:32.346Z,3.38
2022-08-19T11:02:59.386Z,2.45
2022-08-19T11:05:26.415Z,3.08
2022-08-19T11:07:53.652Z,1.77
2022-08-19T11:10:22.477Z,4.65
2022-08-19T11:12:51.588Z,2.33
2022-08-19T11:15:18.796Z,2.27
2022-08-19T11:17:45.844Z,2.83
2022-08-19T11:20:13.281Z,5.07
2022-08-19T11:22:41.821Z,4.25
2022-08-19T11:25:09.489Z,4.07
2022-08-19T11:27:40.294Z,2.88
2022-08-19T11:30:08.569Z,3.03
2022-08-19T11:32:40.315Z,4.10
2022-08-19T11:35:07.753Z,3.47
2022-08-19T11:37:38.134Z,4.70
2022-08-19T11:40:05.986Z,4.43
2022-08-19T11:42:51.950Z,3.53
2022-08-19T11:45:18.871Z,4.20
2022-08-19T11:47:45.525Z,4.85
2022-08-19T11:50:12.613Z,5.72
2022-08-19T11:52:39.694Z,2.50
2022-08-19T11:55:07.072Z,2.90
2022-08-19T11:57:34.101Z,3.92
2022-08-19T12:00:00.723Z,4.80
2022-08-19T12:02:27.553Z,4.57
2022-08-19T12:04:54.717Z,4.13
2022-08-19T12:07:21.320Z,3.80
2022-08-19T12:09:48.601Z,3.97
2022-08-19T12:12:15.481Z,4.72
2022-08-19T12:14:42.365Z,2.65
2022-08-19T12:17:09.997Z,6.32
2022-08-19T12:19:38.017Z,3.13
2022-08-19T12:22:06.361Z,3.08
2022-08-19T12:24:33.305Z,3.00
2022-08-19T12:27:03.197Z,5.05
2022-08-19T12:29:30.323Z,4.95
2022-08-19T12:32:04.280Z,4.07
2022-08-19T12:34:32.181Z,4.65
2022-08-19T12:36:59.730Z,3.20
2022-08-19T12:39:26.710Z,3.60
2022-08-19T12:41:54.681Z,4.13
2022-08-19T12:44:29.194Z,3.88
2022-08-19T12:46:59.036Z,3.53
2022-08-19T12:49:50.245Z,3.15
2022-08-19T12:52:16.220Z,3.00
2022-08-19T12:54:44.086Z,4.47
2022-08-19T12:57:11.174Z,4.25
2022-08-19T12:59:38.240Z,3.42
2022-08-19T13:02:06.949Z,3.13
2022-08-19T13:04:36.058Z,3.27
2022-08-19T13:07:03.154Z,5.45
2022-08-19T13:09:29.791Z,4.72
2022-08-19T13:11:57.693Z,5.25
2022-08-19T13:14:24.294Z,4.10
2022-08-19T13:16:53.631Z,3.70
2022-08-19T13:23:01.270Z,3.92
2022-08-19T13:25:27.944Z,5.88
2022-08-19T13:27:56.028Z,6.70
2022-08-19T13:30:41.588Z,6.35
2022-08-19T13:33:17.379Z,6.72
2022-08-19T13:35:49.878Z,3.58
2022-08-19T13:38:21.360Z,6.50
2022-08-19T13:40:48.684Z,6.68
2022-08-19T13:43:22.398Z,5.18
2022-08-19T13:45:51.401Z,7.82
2022-08-19T13:48:19.189Z,6.15
2022-08-19T13:50:47.600Z,4.43
2022-08-19T13:53:14.286Z,8.82
2022-08-19T13:55:41.899Z,7.63
2022-08-19T13:58:08.706Z,4.60
2022-08-19T14:00:37.375Z,5.30
2022-08-19T14:03:09.016Z,4.38
2022-08-19T14:05:36.440Z,5.35
2022-08-19T14:08:03.760Z,6.22
2022-08-19T14:10:32.397Z,5.25
2022-08-19T14:13:02.046Z,4.85
2022-08-19T14:15:29.321Z,9.55
2022-08-19T14:17:56.710Z,6.10
2022-08-19T14:20:26.055Z,7.95
2022-08-19T14:22:53.682Z,4.40
2022-08-19T14:25:21.889Z,5.13
2022-08-19T14:27:49.136Z,5.72
2022-08-19T14:30:17.653Z,6.25
2022-08-19T14:32:44.670Z,6.15
2022-08-19T14:35:13.383Z,4.47
2022-08-19T14:37:45.451Z,4.65
2022-08-19T14:40:13.245Z,5.43
2022-08-19T14:42:40.395Z,6.00
2022-08-19T14:45:07.783Z,6.05
2022-08-19T14:47:34.812Z,5.90
2022-08-19T14:50:03.348Z,6.25
2022-08-19T14:52:34.586Z,7.05
2022-08-19T14:55:01.741Z,6.68
2022-08-19T14:57:29.324Z,5.10
2022-08-19T14:59:57.948Z,5.43
2022-08-19T15:02:35.073Z,4.10
2022-08-19T15:05:03.044Z,8.48
2022-08-19T15:07:30.372Z,6.63
2022-08-19T15:09:57.685Z,7.57
2022-08-19T15:12:24.976Z,4.50
2022-08-19T15:14:55.806Z,6.97
2022-08-19T15:17:43.475Z,7.03
2022-08-19T15:20:10.821Z,5.35
2022-08-19T15:22:37.850Z,6.30
2022-08-19T15:25:05.464Z,7.43
2022-08-19T15:27:32.886Z,5.85
2022-08-19T15:30:01.147Z,5.97
2022-08-19T15:32:31.485Z,4.53
2022-08-19T15:37:25.176Z,6.28
2022-08-19T15:39:51.876Z,6.05
2022-08-19T15:42:29.666Z,5.72
2022-08-19T15:45:00.237Z,6.03
2022-08-19T15:47:29.363Z,7.47
2022-08-19T15:50:07.129Z,5.32
2022-08-19T15:52:41.923Z,4.35
2022-08-19T15:55:32.764Z,8.10
2022-08-19T15:58:29.273Z,4.20
2022-08-19T16:01:17.811Z,5.57
2022-08-19T16:04:11.389Z,4.60
2022-08-19T16:06:49.881Z,6.35
2022-08-19T16:09:16.896Z,4.75
2022-08-19T16:11:46.325Z,4.00
2022-08-19T16:14:17.149Z,4.80
2022-08-19T16:16:46.548Z,5.15
2022-08-19T16:19:15.589Z,4.60
2022-08-19T16:21:44.246Z,4.97
2022-08-19T16:24:12.910Z,9.45
2022-08-19T16:26:40.187Z,3.70
2022-08-19T16:29:08.969Z,4.20
2022-08-19T16:31:41.312Z,3.92
2022-08-19T16:34:08.061Z,6.85
2022-08-19T16:36:34.678Z,4.13
2022-08-19T16:39:01.477Z,4.75
2022-08-19T16:41:28.475Z,4.95
2022-08-19T16:43:55.401Z,3.47
2022-08-19T16:46:22.646Z,6.55
2022-08-19T16:48:49.834Z,3.25
2022-08-19T16:51:16.627Z,4.43
2022-08-19T16:53:43.513Z,3.65
2022-08-19T16:56:10.790Z,5.45
2022-08-19T16:58:37.634Z,7.05
2022-08-19T17:01:06.853Z,3.88
2022-08-19T17:03:36.506Z,4.03
2022-08-19T17:06:04.587Z,5.38
2022-08-19T17:08:45.708Z,4.93
2022-08-19T17:11:18.498Z,6.03
2022-08-19T17:13:47.744Z,3.88
2022-08-19T17:16:15.725Z,5.72
2022-08-19T17:18:42.321Z,7.93
2022-08-19T17:21:08.956Z,5.45
2022-08-19T17:23:42.111Z,5.40
2022-08-19T17:26:16.798Z,4.97
2022-08-19T17:28:46.060Z,4.20
2022-08-19T17:31:12.695Z,4.00
2022-08-19T17:33:41.041Z,5.25
2022-08-19T17:36:08.737Z,4.55
2022-08-19T17:38:35.854Z,7.47
2022-08-19T17:41:05.871Z,4.93
2022-08-19T17:46:04.269Z,6.95
2022-08-19T17:48:40.730Z,5.20
2022-08-19T17:51:33.760Z,4.22
2022-08-19T17:54:00.524Z,6.28
2022-08-19T17:56:28.638Z,6.45
2022-08-19T17:59:00.672Z,6.95
2022-08-19T18:01:30.732Z,6.13
2022-08-19T18:04:09.932Z,5.68
2022-08-19T18:06:36.673Z,5.07
2022-08-19T18:09:05.208Z,5.43
2022-08-19T18:11:32.149Z,3.35
2022-08-19T18:13:58.780Z,5.22
2022-08-19T18:16:25.478Z,5.28
2022-08-19T18:18:53.782Z,4.82
2022-08-19T18:21:20.890Z,4.35
2022-08-19T18:23:47.502Z,4.75
2022-08-19T18:26:14.156Z,4.43
2022-08-19T18:28:49.707Z,5.93
2022-08-19T18:31:17.105Z,5.18
2022-08-19T18:33:44.695Z,4.28
2022-08-19T18:36:11.505Z,4.00
2022-08-19T18:38:56.618Z,3.42
2022-08-19T18:41:41.997Z,4.60
2022-08-19T18:44:28.479Z,5.22
2022-08-19T18:47:14.055Z,4.55
2022-08-19T18:49:40.766Z,3.70
2022-08-19T18:52:07.493Z,5.22
2022-08-19T18:54:34.342Z,5.90
2022-08-19T18:57:01.068Z,5.68
2022-08-19T18:59:30.384Z,3.67
2022-08-19T19:01:57.965Z,4.03
2022-08-19T19:04:30.389Z,6.95
2022-08-19T19:06:57.918Z,5.68
2022-08-19T19:09:24.778Z,5.53
2022-08-19T19:11:56.398Z,4.63
2022-08-19T19:14:47.794Z,5.68
2022-08-19T19:17:13.811Z,5.18
2022-08-19T19:19:42.633Z,6.88
2022-08-19T19:22:14.031Z,4.88
2022-08-19T19:24:44.018Z,5.15
2022-08-19T19:27:12.425Z,8.57
2022-08-19T19:29:39.375Z,6.30
2022-08-19T19:32:20.015Z,8.93
2022-08-19T19:34:46.818Z,6.45
2022-08-19T19:37:13.502Z,7.40
2022-08-19T19:39:46.032Z,6.22
2022-08-19T19:42:20.595Z,7.15
2022-08-19T19:44:48.786Z,5.65
2022-08-19T19:47:16.036Z,8.35
2022-08-19T19:50:03.868Z,7.15
2022-08-19T19:52:29.628Z,7.57
2022-08-19T19:54:56.805Z,5.65
2022-08-19T19:57:23.750Z,7.05
2022-08-19T19:59:51.320Z,6.25
2022-08-19T20:02:18.337Z,6.72
2022-08-19T20:04:45.255Z,6.38
2022-08-19T20:07:11.917Z,8.43
2022-08-19T20:09:58.368Z,6.15
2022-08-19T20:12:25.209Z,8.25
2022-08-19T20:14:53.049Z,16.58
2022-08-19T20:17:20.530Z,8.43
2022-08-19T20:19:48.038Z,8.15
2022-08-19T20:22:15.443Z,10.35
2022-08-19T20:24:42.674Z,9.98
2022-08-19T20:27:10.609Z,10.52
2022-08-19T20:29:41.501Z,10.02
2022-08-19T20:32:09.595Z,9.43
2022-08-19T20:34:37.160Z,9.73
2022-08-19T20:37:03.974Z,9.93
2022-08-19T20:39:30.731Z,9.02
2022-08-19T20:41:57.447Z,8.65
2022-08-19T20:44:25.336Z,6.45
2022-08-19T20:46:55.391Z,7.57
2022-08-19T20:49:27.207Z,11.38
2022-08-19T20:51:55.366Z,7.50
2022-08-19T20:54:22.047Z,8.88
2022-08-19T20:56:48.725Z,8.65
2022-08-19T20:59:15.420Z,7.50
2022-08-19T21:01:42.348Z,8.57
2022-08-19T21:04:08.995Z,8.20
2022-08-19T21:06:35.818Z,8.50
2022-08-19T21:09:02.477Z,7.43
2022-08-19T21:11:29.342Z,7.30
2022-08-19T21:13:56.907Z,6.93
2022-08-19T21:16:23.564Z,9.25
2022-08-19T21:18:50.271Z,7.57
2022-08-19T21:21:17.174Z,6.70
2022-08-19T21:23:44.165Z,8.95
2022-08-19T21:26:10.987Z,10.00
2022-08-19T21:28:37.662Z,6.05
2022-08-19T21:31:05.570Z,8.15
2022-08-19T21:33:33.105Z,8.73
2022-08-19T21:36:00.108Z,8.35
2022-08-19T21:38:27.071Z,11.27
2022-08-19T21:40:53.744Z,8.50
2022-08-19T21:43:20.460Z,9.63
2022-08-19T21:45:47.571Z,6.65
2022-08-19T21:48:15.011Z,13.38
2022-08-19T21:50:42.663Z,8.65
2022-08-19T21:53:13.989Z,9.85
2022-08-19T21:55:44.805Z,9.57
2022-08-19T21:58:12.294Z,8.27
2022-08-19T22:00:39.850Z,6.95
2022-08-19T22:03:06.555Z,10.65
2022-08-19T22:05:33.828Z,11.25
2022-08-19T22:08:02.483Z,8.25
2022-08-19T22:10:31.079Z,7.05
2022-08-19T22:12:57.739Z,11.15
2022-08-19T22:15:26.128Z,9.27
2022-08-19T22:17:53.156Z,10.48
2022-08-19T22:20:22.061Z,9.00
2022-08-19T22:22:51.404Z,9.68
2022-08-19T22:25:32.571Z,7.73
2022-08-19T22:28:00.699Z,8.73
2022-08-19T22:30:33.181Z,10.15
2022-08-19T22:33:02.116Z,10.05
2022-08-19T22:35:31.948Z,11.15
2022-08-19T22:37:59.093Z,13.07
2022-08-19T22:40:26.988Z,8.95
2022-08-19T22:43:02.031Z,8.52
2022-08-19T22:45:28.830Z,8.50
2022-08-19T22:47:55.623Z,10.98
2022-08-19T22:50:22.633Z,10.07
2022-08-19T22:52:52.246Z,11.32
2022-08-19T22:55:19.370Z,10.10
2022-08-19T22:57:46.022Z,9.57
2022-08-19T23:00:13.645Z,10.18
2022-08-19T23:02:52.177Z,12.57
2022-08-19T23:05:21.964Z,7.85
2022-08-19T23:07:52.131Z,11.82
2022-08-19T23:10:27.621Z,7.57
2022-08-19T23:12:55.350Z,8.00
2022-08-19T23:15:24.221Z,7.95
2022-08-19T23:17:54.182Z,12.07
2022-08-19T23:20:21.536Z,8.50
2022-08-19T23:22:50.476Z,7.78
2022-08-19T23:25:19.567Z,7.15
2022-08-19T23:28:04.835Z,12.00
2022-08-19T23:30:31.932Z,9.73
2022-08-19T23:33:01.850Z,9.05
2022-08-19T23:35:32.682Z,8.65
2022-08-19T23:38:00.962Z,11.07
2022-08-19T23:40:27.802Z,6.60
2022-08-19T23:42:54.689Z,8.30
2022-08-19T23:45:23.660Z,7.57
2022-08-19T23:47:50.738Z,7.50
2022-08-19T23:50:17.519Z,8.90
2022-08-19T23:52:55.202Z,9.88
2022-08-19T23:55:24.452Z,8.23
2022-08-19T23:57:51.206Z,9.18
